Time;durP1;ratioP1;P1;durP2;ratioP2;P2;SDS_P1;SDS_P2;PMS_P1;PMS_P2;Temp;Humidity;BMP_temperature;BMP_pressure;BME280_temperature;BME280_humidity;BME280_pressure;Samples;Min_cycle;Max_cycle;Signal;HPM_P1;HPM_P2
2023/06/05 00:01:07;;;;;;;8.90;5.90;;;;;;;;;;13177019;22;20357;-89
2023/06/05 00:06:09;;;;;;;6.55;5.78;;;;;;;;;;13176769;22;20354;-89
2023/06/05 00:11:12;;;;;;;6.80;6.10;;;;;;;;;;13176717;22;20516;-89
2023/06/05 00:16:15;;;;;;;8.48;5.85;;;;;;;;;;13175909;22;20365;-89
2023/06/05 00:21:19;;;;;;;6.60;3.87;;;;;;;;;;13169357;22;20374;-88
2023/06/05 00:26:22;;;;;;;2.85;2.20;;;;;;;;;;13171878;22;20353;-89
2023/06/05 00:31:25;;;;;;;4.38;1.88;;;;;;;;;;13170905;22;20373;-88
2023/06/05 00:36:27;;;;;;;3.55;1.70;;;;;;;;;;13171928;22;20717;-88
2023/06/05 00:41:30;;;;;;;7.13;1.77;;;;;;;;;;13174599;22;20435;-88
2023/06/05 00:46:34;;;;;;;6.13;2.45;;;;;;;;;;13176317;22;20411;-88
2023/06/05 00:51:36;;;;;;;3.17;1.35;;;;;;;;;;13197015;22;20369;-89
2023/06/05 00:56:39;;;;;;;1.95;1.23;;;;;;;;;;13174929;22;20732;-88
2023/06/05 01:01:43;;;;;;;2.53;1.47;;;;;;;;;;13175101;22;20418;-88
2023/06/05 01:06:46;;;;;;;3.45;1.77;;;;;;;;;;13176180;22;20833;-89
2023/06/05 01:11:54;;;;;;;2.20;1.65;;;;;;;;;;13174719;22;20373;-88
2023/06/05 01:17:00;;;;;;;3.93;1.67;;;;;;;;;;13173679;22;20366;-88
2023/06/05 01:22:02;;;;;;;2.77;1.87;;;;;;;;;;13175485;22;20388;-89
2023/06/05 01:27:15;;;;;;;3.08;1.85;;;;;;;;;;13174439;22;20358;-89
2023/06/05 01:32:24;;;;;;;2.95;1.90;;;;;;;;;;13196419;22;20373;-89
2023/06/05 01:37:36;;;;;;;4.30;2.00;;;;;;;;;;13174476;22;20349;-88
2023/06/05 01:42:42;;;;;;;3.78;1.98;;;;;;;;;;13174694;22;20749;-89
2023/06/05 01:47:45;;;;;;;8.45;2.75;;;;;;;;;;13195877;22;20391;-88
2023/06/05 01:52:49;;;;;;;2.08;1.73;;;;;;;;;;13197508;22;20365;-89
2023/06/05 01:57:52;;;;;;;3.58;1.90;;;;;;;;;;13195728;22;20667;-88
2023/06/05 02:02:55;;;;;;;2.80;1.90;;;;;;;;;;13173272;22;20358;-89
2023/06/05 02:07:58;;;;;;;3.27;1.60;;;;;;;;;;13174531;22;20415;-88
2023/06/05 02:13:02;;;;;;;4.47;1.83;;;;;;;;;;13173586;22;20739;-87
2023/06/05 02:18:07;;;;;;;2.60;1.50;;;;;;;;;;13172901;22;20358;-88
2023/06/05 02:23:10;;;;;;;2.50;1.40;;;;;;;;;;13173603;22;20491;-88
2023/06/05 02:28:13;;;;;;;1.90;1.30;;;;;;;;;;13173475;22;20472;-88
2023/06/05 02:33:17;;;;;;;2.20;1.30;;;;;;;;;;13174238;22;20358;-88
2023/06/05 02:38:19;;;;;;;1.50;1.33;;;;;;;;;;13173947;22;20743;-89
2023/06/05 02:43:23;;;;;;;2.72;1.50;;;;;;;;;;13173317;22;20353;-88
2023/06/05 02:48:25;;;;;;;2.20;1.30;;;;;;;;;;13174332;22;20370;-88
2023/06/05 02:53:28;;;;;;;3.10;1.40;;;;;;;;;;13172880;22;20361;-88
2023/06/05 02:58:33;;;;;;;2.53;1.35;;;;;;;;;;13173436;22;20365;-88
2023/06/05 03:03:35;;;;;;;2.80;1.40;;;;;;;;;;13173199;22;20358;-89
2023/06/05 03:08:38;;;;;;;3.03;1.47;;;;;;;;;;13172076;22;20374;-88
2023/06/05 03:13:42;;;;;;;1.80;1.52;;;;;;;;;;13176904;22;20399;-88
2023/06/05 03:18:45;;;;;;;1.60;1.50;;;;;;;;;;13176813;22;20361;-88
2023/06/05 03:23:47;;;;;;;2.20;1.30;;;;;;;;;;13176539;22;20682;-88
2023/06/05 03:28:51;;;;;;;3.25;1.70;;;;;;;;;;13176802;22;20378;-88
2023/06/05 03:33:54;;;;;;;3.28;1.55;;;;;;;;;;13176158;22;20362;-88
2023/06/05 03:38:56;;;;;;;1.73;1.47;;;;;;;;;;13176191;22;20370;-88
2023/06/05 03:44:00;;;;;;;3.90;1.80;;;;;;;;;;13193207;22;20407;-88
2023/06/05 03:49:08;;;;;;;3.15;1.65;;;;;;;;;;13198230;22;20374;-87
2023/06/05 03:54:12;;;;;;;6.05;3.13;;;;;;;;;;13177125;22;20361;-88
2023/06/05 03:59:19;;;;;;;3.60;1.90;;;;;;;;;;13176047;22;20388;-88
2023/06/05 04:04:22;;;;;;;4.15;2.10;;;;;;;;;;13176828;22;20623;-88
2023/06/05 04:09:24;;;;;;;2.25;1.52;;;;;;;;;;13175840;22;20770;-88
2023/06/05 04:14:28;;;;;;;3.55;1.80;;;;;;;;;;13175551;22;20885;-88
2023/06/05 04:19:30;;;;;;;2.85;1.83;;;;;;;;;;13186117;22;20388;-89
2023/06/05 04:24:33;;;;;;;3.47;1.85;;;;;;;;;;13174510;22;20357;-88
2023/06/05 04:29:37;;;;;;;3.08;2.00;;;;;;;;;;13174130;22;20431;-88
2023/06/05 04:34:40;;;;;;;2.67;1.70;;;;;;;;;;13174001;22;20362;-88
2023/06/05 04:39:43;;;;;;;3.58;1.92;;;;;;;;;;13174260;22;20365;-87
2023/06/05 04:44:57;;;;;;;3.27;2.10;;;;;;;;;;13173218;22;20902;-88
2023/06/05 04:50:00;;;;;;;2.65;2.00;;;;;;;;;;13196311;22;20399;-88
2023/06/05 04:55:03;;;;;;;4.05;1.90;;;;;;;;;;13172462;22;20349;-88
2023/06/05 05:00:10;;;;;;;3.90;2.13;;;;;;;;;;13171131;22;20682;-88
2023/06/05 05:05:13;;;;;;;4.30;1.83;;;;;;;;;;13197551;22;20399;-88
2023/06/05 05:10:15;;;;;;;3.20;2.03;;;;;;;;;;13174005;22;20378;-88
2023/06/05 05:15:20;;;;;;;3.03;2.00;;;;;;;;;;13173438;22;20361;-88
2023/06/05 05:20:29;;;;;;;3.00;1.88;;;;;;;;;;13172584;22;20735;-88
2023/06/05 05:25:31;;;;;;;4.13;2.85;;;;;;;;;;13172924;22;20353;-88
2023/06/05 05:30:35;;;;;;;3.65;2.05;;;;;;;;;;13171541;22;20373;-88
2023/06/05 05:35:37;;;;;;;2.70;2.00;;;;;;;;;;13170848;22;20387;-86
2023/06/05 05:40:40;;;;;;;4.40;2.20;;;;;;;;;;13168218;22;20438;-86
2023/06/05 05:45:44;;;;;;;4.00;2.05;;;;;;;;;;13166934;22;20414;-85
2023/06/05 05:50:47;;;;;;;2.70;1.65;;;;;;;;;;13167867;22;20422;-86
2023/06/05 05:55:49;;;;;;;2.87;2.03;;;;;;;;;;13170060;22;20444;-86
2023/06/05 06:00:53;;;;;;;4.25;2.30;;;;;;;;;;13171603;22;20391;-86
2023/06/05 06:05:56;;;;;;;3.45;2.33;;;;;;;;;;13172652;22;20362;-85
2023/06/05 06:10:59;;;;;;;3.83;2.30;;;;;;;;;;13170510;22;20411;-86
2023/06/05 06:16:03;;;;;;;3.37;2.70;;;;;;;;;;13172278;22;20419;-86
2023/06/05 06:21:06;;;;;;;4.00;2.30;;;;;;;;;;13171738;22;20600;-86
2023/06/05 06:26:09;;;;;;;5.00;2.30;;;;;;;;;;13172702;22;20662;-86
2023/06/05 06:31:13;;;;;;;3.75;2.53;;;;;;;;;;13193591;22;20361;-86
2023/06/05 06:36:17;;;;;;;3.47;2.28;;;;;;;;;;13173072;22;20366;-86
2023/06/05 06:41:19;;;;;;;3.55;2.40;;;;;;;;;;13172049;22;20358;-86
2023/06/05 06:46:23;;;;;;;4.13;2.30;;;;;;;;;;13174280;22;20362;-86
2023/06/05 06:51:25;;;;;;;2.90;2.30;;;;;;;;;;13177056;22;20851;-86
2023/06/05 06:56:27;;;;;;;5.28;2.10;;;;;;;;;;13176213;22;20418;-86
2023/06/05 07:01:32;;;;;;;2.58;2.15;;;;;;;;;;13199013;22;20380;-86
2023/06/05 07:06:34;;;;;;;3.28;2.35;;;;;;;;;;13176171;22;20365;-86
2023/06/05 07:11:37;;;;;;;3.50;2.00;;;;;;;;;;13175450;22;20415;-86
2023/06/05 07:16:40;;;;;;;3.33;2.10;;;;;;;;;;13175085;22;20419;-87
2023/06/05 07:21:43;;;;;;;4.25;2.50;;;;;;;;;;13175617;22;20829;-86
2023/06/05 07:26:45;;;;;;;3.63;2.77;;;;;;;;;;13175327;22;20399;-86
2023/06/05 07:31:49;;;;;;;3.53;2.90;;;;;;;;;;13175269;22;20926;-87
2023/06/05 07:36:52;;;;;;;4.07;3.08;;;;;;;;;;13176331;22;20354;-87
2023/06/05 07:41:55;;;;;;;5.05;3.38;;;;;;;;;;13174685;22;20898;-87
2023/06/05 07:46:59;;;;;;;5.10;3.83;;;;;;;;;;13175830;22;20415;-86
2023/06/05 07:52:01;;;;;;;5.68;3.83;;;;;;;;;;13197475;22;20498;-87
2023/06/05 07:57:07;;;;;;;4.35;3.60;;;;;;;;;;13175135;22;20406;-87
2023/06/05 08:02:11;;;;;;;4.72;3.60;;;;;;;;;;13174253;22;20366;-87
2023/06/05 08:07:14;;;;;;;4.35;3.60;;;;;;;;;;13176004;22;20379;-86
2023/06/05 08:12:16;;;;;;;4.35;3.42;;;;;;;;;;13174940;22;20411;-86
2023/06/05 08:17:20;;;;;;;3.97;3.22;;;;;;;;;;13174892;22;20685;-87
2023/06/05 08:22:23;;;;;;;4.43;3.65;;;;;;;;;;13175013;22;20358;-87
2023/06/05 08:27:25;;;;;;;5.15;3.15;;;;;;;;;;13174793;22;20821;-87
2023/06/05 08:32:29;;;;;;;3.47;2.60;;;;;;;;;;13174180;22;20616;-87
2023/06/05 08:37:31;;;;;;;3.10;2.80;;;;;;;;;;13173600;22;20362;-87
2023/06/05 08:42:34;;;;;;;2.60;2.10;;;;;;;;;;13173711;22;20358;-86
2023/06/05 08:47:41;;;;;;;2.73;1.80;;;;;;;;;;13196331;22;20354;-87
2023/06/05 08:52:45;;;;;;;3.08;2.13;;;;;;;;;;13174314;22;20366;-86
2023/06/05 08:57:48;;;;;;;2.60;2.10;;;;;;;;;;13172707;22;20362;-87
2023/06/05 09:02:52;;;;;;;2.30;2.08;;;;;;;;;;13172561;22;20829;-86
2023/06/05 09:07:55;;;;;;;2.80;2.10;;;;;;;;;;13173431;22;20361;-86
2023/06/05 09:12:58;;;;;;;3.05;2.03;;;;;;;;;;13172647;22;20381;-87
2023/06/05 09:18:10;;;;;;;3.60;1.98;;;;;;;;;;13173744;22;20369;-86
2023/06/05 09:23:24;;;;;;;2.35;1.88;;;;;;;;;;13172971;22;20663;-86
2023/06/05 09:28:27;;;;;;;3.45;1.80;;;;;;;;;;13172481;22;20361;-86
2023/06/05 09:33:33;;;;;;;1.85;1.40;;;;;;;;;;13172138;22;20430;-87
2023/06/05 09:38:37;;;;;;;1.93;1.60;;;;;;;;;;13172429;22;20391;-86
2023/06/05 09:43:39;;;;;;;1.60;1.27;;;;;;;;;;13170957;22;20357;-87
2023/06/05 09:48:51;;;;;;;1.95;1.60;;;;;;;;;;13174338;22;20423;-87
2023/06/05 09:53:53;;;;;;;1.27;1.10;;;;;;;;;;13170988;22;20407;-86
2023/06/05 09:58:57;;;;;;;1.93;1.20;;;;;;;;;;13173237;22;20502;-88
2023/06/05 10:04:03;;;;;;;2.28;1.30;;;;;;;;;;13171978;22;20358;-87
2023/06/05 10:09:09;;;;;;;1.10;1.00;;;;;;;;;;13172527;22;20358;-87
2023/06/05 10:14:12;;;;;;;1.60;0.80;;;;;;;;;;13172408;22;20377;-87
2023/06/05 10:19:18;;;;;;;1.00;0.90;;;;;;;;;;13174100;22;20349;-87
2023/06/05 10:24:25;;;;;;;1.80;0.80;;;;;;;;;;13176769;22;20908;-87
2023/06/05 10:29:56;;;;;;;2.17;1.00;;;;;;;;;;13198680;22;20418;-87
2023/06/05 10:35:14;;;;;;;2.30;1.45;;;;;;;;;;13176740;22;20698;-88
2023/06/05 10:40:18;;;;;;;1.37;1.27;;;;;;;;;;13176561;22;20365;-87
2023/06/05 10:45:31;;;;;;;1.50;1.40;;;;;;;;;;13175676;22;20422;-87
2023/06/05 10:50:35;;;;;;;2.38;1.70;;;;;;;;;;13175410;22;20430;-86
2023/06/05 10:55:46;;;;;;;2.03;1.50;;;;;;;;;;13174103;22;20391;-87
2023/06/05 11:01:16;;;;;;;2.47;1.70;;;;;;;;;;13175442;22;20828;-83
2023/06/05 11:06:21;;;;;;;1.80;1.60;;;;;;;;;;13176337;22;20358;-87
2023/06/05 11:11:23;;;;;;;3.33;2.08;;;;;;;;;;13174943;22;20377;-87
2023/06/05 11:16:32;;;;;;;1.77;1.40;;;;;;;;;;13175098;22;20362;-87
2023/06/05 11:22:07;;;;;;;2.05;1.65;;;;;;;;;;13175973;22;20409;-86
2023/06/05 11:27:47;;;;;;;2.60;1.23;;;;;;;;;;13175887;22;20357;-87
2023/06/05 11:32:51;;;;;;;1.60;1.30;;;;;;;;;;13175068;22;20377;-87
2023/06/05 11:38:11;;;;;;;1.10;1.00;;;;;;;;;;13176422;22;20412;-88
2023/06/05 11:43:15;;;;;;;1.35;1.00;;;;;;;;;;13174412;22;20395;-88
2023/06/05 11:48:17;;;;;;;1.80;0.95;;;;;;;;;;13174791;22;20361;-88
2023/06/05 11:53:22;;;;;;;1.73;1.08;;;;;;;;;;13174172;22;20373;-87
2023/06/05 11:58:25;;;;;;;1.10;1.00;;;;;;;;;;13174509;22;20357;-86
2023/06/05 12:03:28;;;;;;;1.70;1.38;;;;;;;;;;13174243;22;20357;-86
2023/06/05 12:08:34;;;;;;;1.20;1.10;;;;;;;;;;13174762;22;20906;-85
2023/06/05 12:13:47;;;;;;;1.20;1.10;;;;;;;;;;13174100;22;20412;-86
2023/06/05 12:18:49;;;;;;;1.45;1.10;;;;;;;;;;13173669;22;20519;-85
2023/06/05 12:24:02;;;;;;;2.33;1.20;;;;;;;;;;13173806;22;20837;-86
2023/06/05 12:29:05;;;;;;;2.33;1.08;;;;;;;;;;13175460;22;20902;-86
2023/06/05 12:34:07;;;;;;;1.08;0.98;;;;;;;;;;13174919;22;20374;-87
2023/06/05 12:39:12;;;;;;;1.30;0.90;;;;;;;;;;13176307;22;20389;-88
2023/06/05 12:44:17;;;;;;;1.17;0.95;;;;;;;;;;13195796;22;20422;-87
2023/06/05 12:49:20;;;;;;;1.42;0.90;;;;;;;;;;13174008;22;20410;-86
2023/06/05 12:54:24;;;;;;;1.53;1.17;;;;;;;;;;13172298;22;20457;-86
2023/06/05 12:59:26;;;;;;;1.30;1.10;;;;;;;;;;13170944;22;20354;-85
2023/06/05 13:04:28;;;;;;;1.40;1.17;;;;;;;;;;13172790;22;20361;-86
2023/06/05 13:09:32;;;;;;;1.10;1.00;;;;;;;;;;13172267;22;20362;-87
2023/06/05 13:14:35;;;;;;;1.20;1.08;;;;;;;;;;13170311;22;20377;-87
2023/06/05 13:19:39;;;;;;;1.73;1.08;;;;;;;;;;13171860;22;20351;-86
2023/06/05 13:24:43;;;;;;;1.52;1.10;;;;;;;;;;13172335;22;20362;-86
2023/06/05 13:29:46;;;;;;;2.50;1.35;;;;;;;;;;13194168;22;20410;-86
2023/06/05 13:34:48;;;;;;;1.50;1.40;;;;;;;;;;13172590;22;20373;-86
2023/06/05 13:39:51;;;;;;;2.60;1.52;;;;;;;;;;13193055;22;20357;-86
2023/06/05 13:44:54;;;;;;;1.52;1.20;;;;;;;;;;13171353;22;20388;-86
2023/06/05 13:49:57;;;;;;;1.17;1.08;;;;;;;;;;13172152;22;20736;-87
2023/06/05 13:55:01;;;;;;;1.60;1.33;;;;;;;;;;13171692;22;20434;-86
2023/06/05 14:00:05;;;;;;;2.75;1.42;;;;;;;;;;13171087;22;20786;-86
2023/06/05 14:05:10;;;;;;;1.57;1.37;;;;;;;;;;13172165;22;20434;-86
2023/06/05 14:10:14;;;;;;;1.55;1.33;;;;;;;;;;13171938;22;20357;-87
2023/06/05 14:15:17;;;;;;;1.75;1.52;;;;;;;;;;13170249;22;20904;-87
2023/06/05 14:20:20;;;;;;;1.65;1.20;;;;;;;;;;13171511;22;20354;-86
2023/06/05 14:25:25;;;;;;;1.60;1.20;;;;;;;;;;13192541;22;20349;-86
2023/06/05 14:30:28;;;;;;;1.80;1.55;;;;;;;;;;13168951;22;20365;-86
2023/06/05 14:35:30;;;;;;;2.55;1.40;;;;;;;;;;13171486;22;20377;-87
2023/06/05 14:40:34;;;;;;;2.92;1.30;;;;;;;;;;13192610;22;20832;-87
2023/06/05 14:45:36;;;;;;;2.25;1.40;;;;;;;;;;13194799;22;20358;-87
2023/06/05 14:50:39;;;;;;;1.70;1.38;;;;;;;;;;13174530;22;20362;-87
2023/06/05 14:55:42;;;;;;;1.63;1.30;;;;;;;;;;13172345;22;20381;-87
2023/06/05 15:00:46;;;;;;;1.30;1.10;;;;;;;;;;13172814;22;20813;-88
2023/06/05 15:05:49;;;;;;;2.38;1.13;;;;;;;;;;13174179;22;20361;-87
2023/06/05 15:10:52;;;;;;;1.60;1.20;;;;;;;;;;13176947;22;20627;-87
2023/06/05 15:15:55;;;;;;;0.70;0.70;;;;;;;;;;13176648;22;20385;-87
2023/06/05 15:20:57;;;;;;;0.95;0.82;;;;;;;;;;13171106;22;20821;-88
2023/06/05 15:26:01;;;;;;;1.10;0.90;;;;;;;;;;13172119;22;20357;-88
2023/06/05 15:31:06;;;;;;;0.80;0.70;;;;;;;;;;13173071;22;21048;-87
2023/06/05 15:36:08;;;;;;;1.98;1.10;;;;;;;;;;13176448;22;20374;-89
2023/06/05 15:41:13;;;;;;;2.08;1.10;;;;;;;;;;13198758;22;20395;-88
2023/06/05 15:46:15;;;;;;;1.10;1.00;;;;;;;;;;13177308;22;20391;-89
2023/06/05 15:51:18;;;;;;;1.08;0.98;;;;;;;;;;13178470;22;20696;-88
2023/06/05 15:56:22;;;;;;;0.85;0.85;;;;;;;;;;13178350;22;20485;-88
2023/06/05 16:01:24;;;;;;;0.70;0.70;;;;;;;;;;13200529;22;20394;-88
2023/06/05 16:06:27;;;;;;;2.70;1.10;;;;;;;;;;13178444;22;20369;-93
2023/06/05 16:11:31;;;;;;;1.13;1.02;;;;;;;;;;13173087;22;20357;-86
2023/06/05 16:16:33;;;;;;;1.23;1.08;;;;;;;;;;13171597;22;20440;-89
2023/06/05 16:21:37;;;;;;;1.20;0.90;;;;;;;;;;13190909;22;20365;-86
2023/06/05 16:26:42;;;;;;;1.38;0.90;;;;;;;;;;13172441;22;20346;-86
2023/06/05 16:31:45;;;;;;;0.93;0.90;;;;;;;;;;13169851;22;20381;-86
2023/06/05 16:36:47;;;;;;;1.05;0.80;;;;;;;;;;13172452;22;20869;-86
2023/06/05 16:41:51;;;;;;;1.50;1.03;;;;;;;;;;13171236;22;20365;-86
2023/06/05 16:46:53;;;;;;;1.80;1.17;;;;;;;;;;13172402;22;20502;-85
2023/06/05 16:51:55;;;;;;;1.08;0.98;;;;;;;;;;13171330;22;20894;-85
2023/06/05 16:57:00;;;;;;;1.55;1.25;;;;;;;;;;13172099;22;20415;-83
2023/06/05 17:02:02;;;;;;;1.80;1.20;;;;;;;;;;13172233;22;20354;-85
2023/06/05 17:07:06;;;;;;;2.97;1.33;;;;;;;;;;13145558;22;20357;-85
2023/06/05 17:12:10;;;;;;;1.58;1.08;;;;;;;;;;13170950;22;20357;-84
2023/06/05 17:17:12;;;;;;;1.33;1.08;;;;;;;;;;13170366;22;20369;-84
2023/06/05 17:22:15;;;;;;;1.20;1.10;;;;;;;;;;13171430;22;20353;-84
2023/06/05 17:27:19;;;;;;;1.48;1.35;;;;;;;;;;13193689;22;20404;-84
2023/06/05 17:32:21;;;;;;;0.85;0.85;;;;;;;;;;13193274;22;20837;-84
2023/06/05 17:37:23;;;;;;;0.80;0.70;;;;;;;;;;13168628;22;20414;-84
2023/06/05 17:42:28;;;;;;;0.77;0.68;;;;;;;;;;13169549;22;20395;-83
2023/06/05 17:47:30;;;;;;;0.98;0.82;;;;;;;;;;13162975;22;20354;-84
2023/06/05 17:52:32;;;;;;;0.97;0.70;;;;;;;;;;13188070;22;20460;-84
2023/06/05 17:57:36;;;;;;;2.10;1.00;;;;;;;;;;13188124;22;20361;-83
2023/06/05 18:02:42;;;;;;;1.50;0.80;;;;;;;;;;13159782;22;20426;-83
2023/06/05 18:07:45;;;;;;;1.35;1.08;;;;;;;;;;13156316;22;20370;-82
2023/06/05 18:12:48;;;;;;;1.00;0.90;;;;;;;;;;13158026;22;20377;-83
2023/06/05 18:17:53;;;;;;;1.92;1.10;;;;;;;;;;13156755;22;20450;-83
2023/06/05 18:22:56;;;;;;;1.93;1.03;;;;;;;;;;13156556;22;20434;-83
2023/06/05 18:28:00;;;;;;;0.93;0.80;;;;;;;;;;13157387;22;20411;-83
2023/06/05 18:33:02;;;;;;;2.00;0.80;;;;;;;;;;13157362;22;20369;-83
2023/06/05 18:38:05;;;;;;;0.70;0.55;;;;;;;;;;13154688;22;20422;-83
2023/06/05 18:43:08;;;;;;;0.40;0.40;;;;;;;;;;13157894;22;20373;-82
2023/06/05 18:48:11;;;;;;;0.68;0.50;;;;;;;;;;13163361;22;20649;-82
2023/06/05 18:53:13;;;;;;;0.60;0.60;;;;;;;;;;13161386;22;20442;-82
2023/06/05 18:58:17;;;;;;;0.80;0.50;;;;;;;;;;13161798;22;20370;-82
2023/06/05 19:03:19;;;;;;;1.45;0.50;;;;;;;;;;13162755;22;20377;-82
2023/06/05 19:08:22;;;;;;;0.40;0.40;;;;;;;;;;13159410;22;20373;-82
2023/06/05 19:13:26;;;;;;;0.50;0.47;;;;;;;;;;13159865;22;20381;-83
2023/06/05 19:18:28;;;;;;;0.50;0.30;;;;;;;;;;13162024;22;20508;-82
2023/06/05 19:23:31;;;;;;;0.40;0.40;;;;;;;;;;13160524;22;20446;-82
2023/06/05 19:28:34;;;;;;;1.17;0.50;;;;;;;;;;13157337;22;20387;-82
2023/06/05 19:33:37;;;;;;;0.65;0.45;;;;;;;;;;13159789;22;20410;-82
2023/06/05 19:38:39;;;;;;;1.70;0.60;;;;;;;;;;13159544;22;20403;-82
2023/06/05 19:43:46;;;;;;;1.80;0.60;;;;;;;;;;13157891;22;20373;-82
2023/06/05 19:48:49;;;;;;;2.07;0.60;;;;;;;;;;13163400;22;20373;-81
2023/06/05 19:53:51;;;;;;;1.58;0.70;;;;;;;;;;13156746;22;20385;-82
2023/06/05 19:58:55;;;;;;;1.47;0.87;;;;;;;;;;13157521;22;20434;-83
2023/06/05 20:03:57;;;;;;;1.45;0.80;;;;;;;;;;13157260;22;20374;-81
2023/06/05 20:08:59;;;;;;;1.88;0.90;;;;;;;;;;13157472;22;20431;-81
2023/06/05 20:14:03;;;;;;;1.50;1.00;;;;;;;;;;13155127;22;20381;-82
2023/06/05 20:19:08;;;;;;;1.77;1.10;;;;;;;;;;13157249;22;20369;-82
2023/06/05 20:24:11;;;;;;;1.93;1.00;;;;;;;;;;13157052;22;20369;-83
2023/06/05 20:29:15;;;;;;;1.40;1.17;;;;;;;;;;13155476;22;20366;-83
2023/06/05 20:34:18;;;;;;;2.90;1.38;;;;;;;;;;13158017;22;20382;-83
2023/06/05 20:39:20;;;;;;;2.20;1.13;;;;;;;;;;13166676;22;20415;-83
2023/06/05 20:44:29;;;;;;;2.03;1.67;;;;;;;;;;13167863;22;20422;-84
2023/06/05 20:49:32;;;;;;;1.45;1.17;;;;;;;;;;13169927;22;20365;-84
2023/06/05 20:54:34;;;;;;;2.75;1.38;;;;;;;;;;13169610;22;20752;-84
2023/06/05 20:59:38;;;;;;;2.23;1.30;;;;;;;;;;13192286;22;20414;-83
2023/06/05 21:04:41;;;;;;;2.17;1.43;;;;;;;;;;13171618;22;20411;-84
2023/06/05 21:09:44;;;;;;;2.28;1.60;;;;;;;;;;13172527;22;20395;-83
2023/06/05 21:14:47;;;;;;;2.00;1.50;;;;;;;;;;13171299;22;20520;-84
2023/06/05 21:19:50;;;;;;;1.85;1.67;;;;;;;;;;13171826;22;20421;-84
2023/06/05 21:24:52;;;;;;;1.60;1.50;;;;;;;;;;13170053;22;20358;-83
2023/06/05 21:29:56;;;;;;;1.85;1.70;;;;;;;;;;13191681;22;20906;-83
2023/06/05 21:34:58;;;;;;;2.58;1.92;;;;;;;;;;13170479;22;20757;-84
2023/06/05 21:40:00;;;;;;;3.13;2.00;;;;;;;;;;13169000;22;20369;-83
2023/06/05 21:45:05;;;;;;;3.17;1.90;;;;;;;;;;13171032;22;20361;-83
2023/06/05 21:50:08;;;;;;;3.55;2.22;;;;;;;;;;13143455;22;20358;-83
2023/06/05 21:55:11;;;;;;;2.93;1.90;;;;;;;;;;13171101;22;20410;-83
2023/06/05 22:00:15;;;;;;;2.30;2.00;;;;;;;;;;13171427;22;20369;-84
2023/06/05 22:05:17;;;;;;;4.63;2.47;;;;;;;;;;13172541;22;20357;-84
2023/06/05 22:10:20;;;;;;;2.33;2.10;;;;;;;;;;13171389;22;20361;-83
2023/06/05 22:15:24;;;;;;;3.90;1.90;;;;;;;;;;13172829;22;20377;-84
2023/06/05 22:20:27;;;;;;;3.50;2.13;;;;;;;;;;13176575;22;20508;-84
2023/06/05 22:25:30;;;;;;;3.20;2.40;;;;;;;;;;13175277;22;20886;-84
2023/06/05 22:30:33;;;;;;;3.50;2.65;;;;;;;;;;13176346;22;20411;-84
2023/06/05 22:35:36;;;;;;;3.60;2.70;;;;;;;;;;13175917;22;20439;-84
2023/06/05 22:40:38;;;;;;;3.60;2.70;;;;;;;;;;13174673;22;20727;-83
2023/06/05 22:45:42;;;;;;;2.90;2.47;;;;;;;;;;13174165;22;20450;-83
2023/06/05 22:50:44;;;;;;;3.25;2.50;;;;;;;;;;13175577;22;20358;-83
2023/06/05 22:55:46;;;;;;;3.45;2.60;;;;;;;;;;13175174;22;20380;-84
2023/06/05 23:00:52;;;;;;;2.88;2.58;;;;;;;;;;13174464;22;20374;-84
2023/06/05 23:05:54;;;;;;;3.00;2.50;;;;;;;;;;13175424;22;20350;-84
2023/06/05 23:10:57;;;;;;;5.65;3.30;;;;;;;;;;13176521;22;20421;-83
2023/06/05 23:16:00;;;;;;;3.53;3.00;;;;;;;;;;13175282;22;20442;-84
2023/06/05 23:21:03;;;;;;;3.50;2.80;;;;;;;;;;13175647;22;20358;-84
2023/06/05 23:26:07;;;;;;;3.53;2.67;;;;;;;;;;13174700;22;20384;-84
2023/06/05 23:31:11;;;;;;;3.27;2.53;;;;;;;;;;13174283;22;20443;-83
2023/06/05 23:36:13;;;;;;;3.40;2.90;;;;;;;;;;13175503;22;20478;-83
2023/06/05 23:41:16;;;;;;;4.05;2.88;;;;;;;;;;13174451;22;20438;-80
2023/06/05 23:46:20;;;;;;;5.15;3.08;;;;;;;;;;13174377;22;20407;-80
2023/06/05 23:51:23;;;;;;;4.73;3.10;;;;;;;;;;13174938;22;20361;-80
2023/06/05 23:56:25;;;;;;;3.28;2.60;;;;;;;;;;13174421;22;20378;-80
